Kezdőlap
METAR-TAF:

METAR-TAF

Repülőterek :

Lawrence Municipal Airport

Lawrence, Massachusetts, Amerikai Egyesült Államok

földrajzi szélesség: 42-42-47N, földrajzi hosszúság: 071-07-33W, magasság: 45 m

Jelenlegi meteorológiai megfigyelések

A jelentés 28 perccel ezelõtt készült, 10:54 UTC
Nyugati szél 18 kt széllökések: 34 kt
Hőmérséklet -12°C
Páratartalom 36%
Légköri nyomás 1012 hPa
Látótávolság: 16.1 km
Derült ég

METAR: KLWM 021054Z AUTO 28018G34KT 10SM CLR M12/M24 A2987 RMK AO2 PK WND 28034/1048 SLP117 T11171239

Idő: 06:22 (11:22 UTC)


TAF: hiányzik

Meteorológiai megfigyelések és előrejelzések több, mint 4000 repülőtéren (METAR és TAF jelentéseket).

A térképen piros és sárga pontok jelzik az elérhető meteorológiai állomásokat.

Mozgassa az egeret a pont fölött, hogy megjelenjen az állomás neve.

Azután kattintson az időjárási megfigyelések és előrejelzések megtekintéséhez.

A térkép megváltoztatása: kattintson a fekete keresztel jelölt zöld gombra ráközelítéshez, a vonallal jelölt zöld gombra távolításhoz, vagy a zöld nyilakra a szomszédos térképek eléréséhez.


METAR-TAF: